PWSweather.com
Personal Weather Stations
Station Observations
MIKESPOST
YorkGB

YorkGB

Lat: 53.9577018, Lon: -1.0822855

Elevation: 0

Station Type: WH1081

High Low Average
Temperature 41.9°F5.5°C 33.4°F0.8°C 35.2°F1.8°C
Dew Point 36.0°F2.2°C 31.1°F-0.5°C 33.0°F0.6°C
Winds 4.2 mph 6.8 kmh Calm Calm Calm SECalm SE
Wind Gusts 6.7 mph10.8 kmh -- 1.0 mph1.6 kmh
Humidity 97% 76% 92%
Pressure 30.70 in1039.6 mb 30.56 in1034.9 mb -
Precipitation 0.00 in0.0 mm - -
Hour Temp Dew Point Humidity Winds Wind Gusts Pressure Precip Precip Rate Daily Precip Total
12:34 AM 34.9°F1.6°C 33.3°F0.7°C 94% Calm Calm -- 30.69 in1039.3 mb 0.00 in0.0 mm 0.00 in/hr0.0 mm/hr 0.00 in0.0 mm
12:44 AM 34.7°F1.5°C 33.2°F0.7°C 94% Calm Calm -- 30.70 in1039.6 mb 0.00 in0.0 mm 0.00 in/hr0.0 mm/hr 0.00 in0.0 mm
12:54 AM 34.5°F1.4°C 33.0°F0.6°C 94% Calm Calm -- 30.69 in1039.3 mb 0.00 in0.0 mm 0.00 in/hr0.0 mm/hr 0.00 in0.0 mm
01:04 AM 34.3°F1.3°C 32.8°F0.4°C 94% Calm Calm -- 30.70 in1039.6 mb 0.00 in0.0 mm 0.00 in/hr0.0 mm/hr 0.00 in0.0 mm
01:14 AM 34.3°F1.3°C 32.8°F0.4°C 94% Calm Calm -- 30.69 in1039.3 mb 0.00 in0.0 mm 0.00 in/hr0.0 mm/hr 0.00 in0.0 mm
01:24 AM 34.3°F1.3°C 32.8°F0.4°C 94% Calm Calm -- 30.69 in1039.3 mb 0.00 in0.0 mm 0.00 in/hr0.0 mm/hr 0.00 in0.0 mm
01:34 AM 34.2°F1.2°C 32.6°F0.3°C 94% Calm Calm -- 30.69 in1039.3 mb 0.00 in0.0 mm 0.00 in/hr0.0 mm/hr 0.00 in0.0 mm
01:44 AM 34.2°F1.2°C 32.9°F0.5°C 95% Calm Calm -- 30.69 in1039.3 mb 0.00 in0.0 mm 0.00 in/hr0.0 mm/hr 0.00 in0.0 mm
01:54 AM 34.3°F1.3°C 33.1°F0.6°C 95% 0.1 mph W0.2 kmh W 1.0 mph1.6 kmh 30.69 in1039.3 mb 0.00 in0.0 mm 0.00 in/hr0.0 mm/hr 0.00 in0.0 mm
02:04 AM 34.3°F1.3°C 33.1°F0.6°C 95% Calm Calm -- 30.69 in1039.3 mb 0.00 in0.0 mm 0.00 in/hr0.0 mm/hr 0.00 in0.0 mm
02:14 AM 34.2°F1.2°C 32.9°F0.5°C 95% Calm Calm -- 30.69 in1039.3 mb 0.00 in0.0 mm 0.00 in/hr0.0 mm/hr 0.00 in0.0 mm
02:24 AM 34.2°F1.2°C 32.9°F0.5°C 95% Calm Calm -- 30.69 in1039.3 mb 0.00 in0.0 mm 0.00 in/hr0.0 mm/hr 0.00 in0.0 mm
02:34 AM 34.2°F1.2°C 32.9°F0.5°C 95% Calm Calm -- 30.69 in1039.3 mb 0.00 in0.0 mm 0.00 in/hr0.0 mm/hr 0.00 in0.0 mm
02:44 AM 34.0°F1.1°C 32.7°F0.4°C 95% Calm Calm -- 30.69 in1039.3 mb 0.00 in0.0 mm 0.00 in/hr0.0 mm/hr 0.00 in0.0 mm
02:54 AM 34.0°F1.1°C 32.7°F0.4°C 95% Calm Calm -- 30.68 in1038.9 mb 0.00 in0.0 mm 0.00 in/hr0.0 mm/hr 0.00 in0.0 mm
03:04 AM 34.0°F1.1°C 32.7°F0.4°C 95% Calm Calm -- 30.68 in1038.9 mb 0.00 in0.0 mm 0.00 in/hr0.0 mm/hr 0.00 in0.0 mm
03:24 AM 33.8°F1.0°C 32.5°F0.3°C 95% Calm Calm -- 30.68 in1038.9 mb 0.00 in0.0 mm 0.00 in/hr0.0 mm/hr 0.00 in0.0 mm
03:34 AM 33.8°F1.0°C 32.5°F0.3°C 95% Calm Calm -- 30.68 in1038.9 mb 0.00 in0.0 mm 0.00 in/hr0.0 mm/hr 0.00 in0.0 mm
03:54 AM 34.3°F1.3°C 33.3°F0.7°C 96% 0.9 mph WSW1.4 kmh WSW 3.4 mph5.5 kmh 30.68 in1038.9 mb 0.00 in0.0 mm 0.00 in/hr0.0 mm/hr 0.00 in0.0 mm
04:04 AM 34.3°F1.3°C 33.3°F0.7°C 96% 0.3 mph SW0.5 kmh SW 1.0 mph1.6 kmh 30.67 in1038.6 mb 0.00 in0.0 mm 0.00 in/hr0.0 mm/hr 0.00 in0.0 mm
04:24 AM 34.2°F1.2°C 33.1°F0.6°C 96% Calm Calm -- 30.67 in1038.6 mb 0.00 in0.0 mm 0.00 in/hr0.0 mm/hr 0.00 in0.0 mm
04:34 AM 34.0°F1.1°C 33.0°F0.6°C 96% Calm Calm -- 30.66 in1038.3 mb 0.00 in0.0 mm 0.00 in/hr0.0 mm/hr 0.00 in0.0 mm
04:44 AM 33.6°F0.9°C 32.6°F0.3°C 96% Calm Calm -- 30.66 in1038.3 mb 0.00 in0.0 mm 0.00 in/hr0.0 mm/hr 0.00 in0.0 mm
04:54 AM 33.6°F0.9°C 32.6°F0.3°C 96% Calm Calm -- 30.67 in1038.6 mb 0.00 in0.0 mm 0.00 in/hr0.0 mm/hr 0.00 in0.0 mm
05:04 AM 33.4°F0.8°C 32.4°F0.2°C 96% Calm Calm -- 30.67 in1038.6 mb 0.00 in0.0 mm 0.00 in/hr0.0 mm/hr 0.00 in0.0 mm
05:14 AM 33.4°F0.8°C 32.4°F0.2°C 96% 0.2 mph SW0.3 kmh SW 2.3 mph3.7 kmh 30.67 in1038.6 mb 0.00 in0.0 mm 0.00 in/hr0.0 mm/hr 0.00 in0.0 mm
05:24 AM 33.8°F1.0°C 32.8°F0.4°C 96% 1.2 mph SW1.9 kmh SW 3.4 mph5.5 kmh 30.67 in1038.6 mb 0.00 in0.0 mm 0.00 in/hr0.0 mm/hr 0.00 in0.0 mm
05:34 AM 34.0°F1.1°C 33.0°F0.6°C 96% 0.3 mph WNW0.5 kmh WNW 1.0 mph1.6 kmh 30.67 in1038.6 mb 0.00 in0.0 mm 0.00 in/hr0.0 mm/hr 0.00 in0.0 mm
05:44 AM 33.8°F1.0°C 32.8°F0.4°C 96% Calm Calm -- 30.67 in1038.6 mb 0.00 in0.0 mm 0.00 in/hr0.0 mm/hr 0.00 in0.0 mm
05:54 AM 33.8°F1.0°C 32.8°F0.4°C 96% Calm Calm -- 30.67 in1038.6 mb 0.00 in0.0 mm 0.00 in/hr0.0 mm/hr 0.00 in0.0 mm
06:04 AM 33.6°F0.9°C 32.6°F0.3°C 96% Calm Calm -- 30.67 in1038.6 mb 0.00 in0.0 mm 0.00 in/hr0.0 mm/hr 0.00 in0.0 mm
06:14 AM 33.6°F0.9°C 32.6°F0.3°C 96% Calm Calm -- 30.66 in1038.3 mb 0.00 in0.0 mm 0.00 in/hr0.0 mm/hr 0.00 in0.0 mm
06:24 AM 33.4°F0.8°C 32.4°F0.2°C 96% Calm Calm -- 30.67 in1038.6 mb 0.00 in0.0 mm 0.00 in/hr0.0 mm/hr 0.00 in0.0 mm
06:34 AM 33.4°F0.8°C 32.4°F0.2°C 96% Calm Calm -- 30.66 in1038.3 mb 0.00 in0.0 mm 0.00 in/hr0.0 mm/hr 0.00 in0.0 mm
06:44 AM 33.4°F0.8°C 32.4°F0.2°C 96% 0.2 mph NW0.3 kmh NW 1.0 mph1.6 kmh 30.67 in1038.6 mb 0.00 in0.0 mm 0.00 in/hr0.0 mm/hr 0.00 in0.0 mm
06:54 AM 33.4°F0.8°C 32.4°F0.2°C 96% Calm Calm -- 30.67 in1038.6 mb 0.00 in0.0 mm 0.00 in/hr0.0 mm/hr 0.00 in0.0 mm
07:24 AM 33.4°F0.8°C 32.4°F0.2°C 96% Calm Calm -- 30.67 in1038.6 mb 0.00 in0.0 mm 0.00 in/hr0.0 mm/hr 0.00 in0.0 mm
07:34 AM 33.4°F0.8°C 32.4°F0.2°C 96% Calm Calm -- 30.67 in1038.6 mb 0.00 in0.0 mm 0.00 in/hr0.0 mm/hr 0.00 in0.0 mm
07:44 AM 33.4°F0.8°C 32.4°F0.2°C 96% Calm Calm -- 30.67 in1038.6 mb 0.00 in0.0 mm 0.00 in/hr0.0 mm/hr 0.00 in0.0 mm
07:54 AM 33.4°F0.8°C 32.4°F0.2°C 96% Calm Calm -- 30.67 in1038.6 mb 0.00 in0.0 mm 0.00 in/hr0.0 mm/hr 0.00 in0.0 mm
08:04 AM 33.4°F0.8°C 32.7°F0.4°C 97% Calm Calm -- 30.67 in1038.6 mb 0.00 in0.0 mm 0.00 in/hr0.0 mm/hr 0.00 in0.0 mm
08:14 AM 33.4°F0.8°C 32.7°F0.4°C 97% Calm Calm -- 30.67 in1038.6 mb 0.00 in0.0 mm 0.00 in/hr0.0 mm/hr 0.00 in0.0 mm
08:24 AM 33.4°F0.8°C 32.7°F0.4°C 97% Calm Calm -- 30.67 in1038.6 mb 0.00 in0.0 mm 0.00 in/hr0.0 mm/hr 0.00 in0.0 mm
08:34 AM 33.4°F0.8°C 32.7°F0.4°C 97% Calm Calm -- 30.67 in1038.6 mb 0.00 in0.0 mm 0.00 in/hr0.0 mm/hr 0.00 in0.0 mm
08:44 AM 33.6°F0.9°C 32.9°F0.5°C 97% Calm Calm -- 30.67 in1038.6 mb 0.00 in0.0 mm 0.00 in/hr0.0 mm/hr 0.00 in0.0 mm
08:54 AM 33.6°F0.9°C 32.9°F0.5°C 97% Calm Calm -- 30.67 in1038.6 mb 0.00 in0.0 mm 0.00 in/hr0.0 mm/hr 0.00 in0.0 mm
09:04 AM 33.8°F1.0°C 33.0°F0.6°C 97% 0.1 mph NW0.2 kmh NW 1.0 mph1.6 kmh 30.67 in1038.6 mb 0.00 in0.0 mm 0.00 in/hr0.0 mm/hr 0.00 in0.0 mm
09:14 AM 34.0°F1.1°C 33.2°F0.7°C 97% Calm Calm -- 30.67 in1038.6 mb 0.00 in0.0 mm 0.00 in/hr0.0 mm/hr 0.00 in0.0 mm
09:24 AM 34.2°F1.2°C 33.4°F0.8°C 97% Calm Calm -- 30.67 in1038.6 mb 0.00 in0.0 mm 0.00 in/hr0.0 mm/hr 0.00 in0.0 mm
09:34 AM 34.5°F1.4°C 33.8°F1.0°C 97% Calm Calm -- 30.66 in1038.3 mb 0.00 in0.0 mm 0.00 in/hr0.0 mm/hr 0.00 in0.0 mm
09:44 AM 34.7°F1.5°C 33.9°F1.1°C 97% 0.2 mph NW0.3 kmh NW 1.0 mph1.6 kmh 30.67 in1038.6 mb 0.00 in0.0 mm 0.00 in/hr0.0 mm/hr 0.00 in0.0 mm
09:54 AM 35.1°F1.7°C 34.3°F1.3°C 97% 0.2 mph NNW0.3 kmh NNW 1.0 mph1.6 kmh 30.66 in1038.3 mb 0.00 in0.0 mm 0.00 in/hr0.0 mm/hr 0.00 in0.0 mm
10:04 AM 35.4°F1.9°C 34.7°F1.5°C 97% 0.2 mph WNW0.3 kmh WNW 1.0 mph1.6 kmh 30.66 in1038.3 mb 0.00 in0.0 mm 0.00 in/hr0.0 mm/hr 0.00 in0.0 mm
10:14 AM 35.8°F2.1°C 34.8°F1.6°C 96% 0.6 mph W1.0 kmh W 2.3 mph3.7 kmh 30.66 in1038.3 mb 0.00 in0.0 mm 0.00 in/hr0.0 mm/hr 0.00 in0.0 mm
10:24 AM 36.0°F2.2°C 34.7°F1.5°C 95% 1.0 mph SW1.6 kmh SW 3.4 mph5.5 kmh 30.66 in1038.3 mb 0.00 in0.0 mm 0.00 in/hr0.0 mm/hr 0.00 in0.0 mm
10:34 AM 36.1°F2.3°C 34.6°F1.4°C 94% 1.4 mph W2.3 kmh W 4.7 mph7.6 kmh 30.66 in1038.3 mb 0.00 in0.0 mm 0.00 in/hr0.0 mm/hr 0.00 in0.0 mm
10:44 AM 36.5°F2.5°C 34.4°F1.3°C 92% 1.6 mph SW2.6 kmh SW 4.7 mph7.6 kmh 30.66 in1038.3 mb 0.00 in0.0 mm 0.00 in/hr0.0 mm/hr 0.00 in0.0 mm
10:54 AM 36.7°F2.6°C 34.0°F1.1°C 90% 1.3 mph W2.1 kmh W 3.4 mph5.5 kmh 30.66 in1038.3 mb 0.00 in0.0 mm 0.00 in/hr0.0 mm/hr 0.00 in0.0 mm
11:14 AM 37.0°F2.8°C 34.1°F1.2°C 89% 0.2 mph NW0.3 kmh NW 1.0 mph1.6 kmh 30.65 in1037.9 mb 0.00 in0.0 mm 0.00 in/hr0.0 mm/hr 0.00 in0.0 mm
11:34 AM 37.6°F3.1°C 34.4°F1.3°C 88% Calm Calm -- 30.65 in1037.9 mb 0.00 in0.0 mm 0.00 in/hr0.0 mm/hr 0.00 in0.0 mm
11:44 AM 38.5°F3.6°C 35.0°F1.7°C 87% 0.6 mph N1.0 kmh N 1.0 mph1.6 kmh 30.65 in1037.9 mb 0.00 in0.0 mm 0.00 in/hr0.0 mm/hr 0.00 in0.0 mm
11:54 AM 38.8°F3.8°C 35.3°F1.8°C 87% 0.1 mph W0.2 kmh W 1.0 mph1.6 kmh 30.64 in1037.6 mb 0.00 in0.0 mm 0.00 in/hr0.0 mm/hr 0.00 in0.0 mm
12:34 PM 39.4°F4.1°C 34.9°F1.6°C 84% 0.4 mph NW0.6 kmh NW 1.0 mph1.6 kmh 30.63 in1037.3 mb 0.00 in0.0 mm 0.00 in/hr0.0 mm/hr 0.00 in0.0 mm
12:44 PM 40.8°F4.9°C 36.0°F2.2°C 83% 0.5 mph NNW0.8 kmh NNW 1.0 mph1.6 kmh 30.62 in1036.9 mb 0.00 in0.0 mm 0.00 in/hr0.0 mm/hr 0.00 in0.0 mm
12:54 PM 41.4°F5.2°C 35.9°F2.2°C 81% 1.0 mph NNW1.6 kmh NNW 2.3 mph3.7 kmh 30.62 in1036.9 mb 0.00 in0.0 mm 0.00 in/hr0.0 mm/hr 0.00 in0.0 mm
01:34 PM 41.9°F5.5°C 35.2°F1.8°C 77% 1.0 mph NW1.6 kmh NW 1.0 mph1.6 kmh 30.61 in1036.6 mb 0.00 in0.0 mm 0.00 in/hr0.0 mm/hr 0.00 in0.0 mm
01:44 PM 41.5°F5.3°C 34.5°F1.4°C 76% 1.0 mph WNW1.6 kmh WNW 3.4 mph5.5 kmh 30.61 in1036.6 mb 0.00 in0.0 mm 0.00 in/hr0.0 mm/hr 0.00 in0.0 mm
01:54 PM 41.2°F5.1°C 34.1°F1.2°C 76% 0.6 mph NNW1.0 kmh NNW 2.3 mph3.7 kmh 30.61 in1036.6 mb 0.00 in0.0 mm 0.00 in/hr0.0 mm/hr 0.00 in0.0 mm
02:04 PM 40.8°F4.9°C 33.8°F1.0°C 76% 0.9 mph WSW1.4 kmh WSW 2.3 mph3.7 kmh 30.61 in1036.6 mb 0.00 in0.0 mm 0.00 in/hr0.0 mm/hr 0.00 in0.0 mm
02:14 PM 40.5°F4.7°C 33.4°F0.8°C 76% 0.8 mph WNW1.3 kmh WNW 1.0 mph1.6 kmh 30.60 in1036.2 mb 0.00 in0.0 mm 0.00 in/hr0.0 mm/hr 0.00 in0.0 mm
02:24 PM 40.5°F4.7°C 33.8°F1.0°C 77% 0.7 mph NW1.1 kmh NW 1.0 mph1.6 kmh 30.60 in1036.2 mb 0.00 in0.0 mm 0.00 in/hr0.0 mm/hr 0.00 in0.0 mm
03:44 PM 38.5°F3.6°C 33.1°F0.6°C 81% 1.0 mph WNW1.6 kmh WNW 2.3 mph3.7 kmh 30.59 in1035.9 mb 0.00 in0.0 mm 0.00 in/hr0.0 mm/hr 0.00 in0.0 mm
04:24 PM 37.4°F3.0°C 33.0°F0.6°C 84% 0.5 mph WNW0.8 kmh WNW 1.0 mph1.6 kmh 30.59 in1035.9 mb 0.00 in0.0 mm 0.00 in/hr0.0 mm/hr 0.00 in0.0 mm
06:43 PM 34.9°F1.6°C 32.3°F0.2°C 90% 0.2 mph W0.3 kmh W 1.0 mph1.6 kmh 30.58 in1035.6 mb 0.00 in0.0 mm 0.00 in/hr0.0 mm/hr 0.00 in0.0 mm
06:53 PM 34.3°F1.3°C 32.0°F0.0°C 91% 0.2 mph SSE0.3 kmh SSE 1.0 mph1.6 kmh 30.58 in1035.6 mb 0.00 in0.0 mm 0.00 in/hr0.0 mm/hr 0.00 in0.0 mm
07:03 PM 34.2°F1.2°C 31.8°F-0.1°C 91% Calm Calm -- 30.58 in1035.6 mb 0.00 in0.0 mm 0.00 in/hr0.0 mm/hr 0.00 in0.0 mm
07:13 PM 34.2°F1.2°C 32.1°F0.1°C 92% Calm Calm -- 30.58 in1035.6 mb 0.00 in0.0 mm 0.00 in/hr0.0 mm/hr 0.00 in0.0 mm
07:23 PM 34.3°F1.3°C 32.3°F0.2°C 92% 0.1 mph W0.2 kmh W 1.0 mph1.6 kmh 30.57 in1035.2 mb 0.00 in0.0 mm 0.00 in/hr0.0 mm/hr 0.00 in0.0 mm
07:43 PM 34.3°F1.3°C 32.3°F0.2°C 92% 0.9 mph S1.4 kmh S 3.4 mph5.5 kmh 30.57 in1035.2 mb 0.00 in0.0 mm 0.00 in/hr0.0 mm/hr 0.00 in0.0 mm
07:53 PM 34.5°F1.4°C 32.5°F0.3°C 92% 2.4 mph SW3.9 kmh SW 4.7 mph7.6 kmh 30.57 in1035.2 mb 0.00 in0.0 mm 0.00 in/hr0.0 mm/hr 0.00 in0.0 mm
08:13 PM 35.1°F1.7°C 32.2°F0.1°C 89% 2.4 mph SW3.9 kmh SW 4.7 mph7.6 kmh 30.57 in1035.2 mb 0.00 in0.0 mm 0.00 in/hr0.0 mm/hr 0.00 in0.0 mm
08:23 PM 35.4°F1.9°C 31.9°F-0.1°C 87% 4.2 mph WSW6.8 kmh WSW 5.7 mph9.2 kmh 30.57 in1035.2 mb 0.00 in0.0 mm 0.00 in/hr0.0 mm/hr 0.00 in0.0 mm
08:43 PM 35.8°F2.1°C 31.7°F-0.2°C 85% 2.8 mph SSW4.5 kmh SSW 4.7 mph7.6 kmh 30.57 in1035.2 mb 0.00 in0.0 mm 0.00 in/hr0.0 mm/hr 0.00 in0.0 mm
09:23 PM 35.4°F1.9°C 31.7°F-0.2°C 86% 1.1 mph SW1.8 kmh SW 2.3 mph3.7 kmh 30.57 in1035.2 mb 0.00 in0.0 mm 0.00 in/hr0.0 mm/hr 0.00 in0.0 mm
09:33 PM 35.4°F1.9°C 31.7°F-0.2°C 86% 1.3 mph SW2.1 kmh SW 2.3 mph3.7 kmh 30.57 in1035.2 mb 0.00 in0.0 mm 0.00 in/hr0.0 mm/hr 0.00 in0.0 mm
09:53 PM 35.4°F1.9°C 31.4°F-0.3°C 85% 1.5 mph N2.4 kmh N 4.7 mph7.6 kmh 30.57 in1035.2 mb 0.00 in0.0 mm 0.00 in/hr0.0 mm/hr 0.00 in0.0 mm
10:13 PM 35.4°F1.9°C 31.4°F-0.3°C 85% 1.5 mph W2.4 kmh W 3.4 mph5.5 kmh 30.57 in1035.2 mb 0.00 in0.0 mm 0.00 in/hr0.0 mm/hr 0.00 in0.0 mm
10:23 PM 35.4°F1.9°C 31.1°F-0.5°C 84% 3.5 mph SW5.6 kmh SW 6.7 mph10.8 kmh 30.56 in1034.9 mb 0.00 in0.0 mm 0.00 in/hr0.0 mm/hr 0.00 in0.0 mm
10:33 PM 35.4°F1.9°C 31.1°F-0.5°C 84% 2.4 mph SSW3.9 kmh SSW 4.7 mph7.6 kmh 30.57 in1035.2 mb 0.00 in0.0 mm 0.00 in/hr0.0 mm/hr 0.00 in0.0 mm